DAL213 KTPA-KJAX
Flight info
| Callsign | DAL213 |
|---|---|
| Flight time | 0h 31m |
| Altitude | 17000 |
| Route | BAYPO2 WILON HILIS TEBOW2 |
| Aircraft | A320/M-SDE3FGHIRWY/LB1 |
Departure
| Time | 2026-05-05 19:55 |
|---|---|
| Airport | Tampa International Airport (KTPA) |
Arrival
| Time | 2026-05-05 20:27 |
|---|---|
| Airport | Jacksonville International Airport (KJAX) |
| Time | Latitude | Longitude | Altitude | Speed | Heading |
|---|---|---|---|---|---|
| 2026-05-05 19:47 | 27.97998 | -82.53879 | 40 ft | 0 kts | 91° |
| 2026-05-05 19:50 | 27.97999 | -82.53899 | 39 ft | 4 kts | 91° |
| 2026-05-05 19:50 | 27.97999 | -82.53930 | 39 ft | 4 kts | 86° |
| 2026-05-05 19:50 | 27.97993 | -82.53958 | 42 ft | 4 kts | 55° |
| 2026-05-05 19:51 | 27.97975 | -82.53973 | 45 ft | 2 kts | 2° |
| 2026-05-05 19:51 | 27.97973 | -82.53973 | 45 ft | 0 kts | 1° |
| 2026-05-05 19:52 | 27.98006 | -82.53972 | 43 ft | 14 kts | 2° |
| 2026-05-05 19:53 | 27.98149 | -82.53967 | 47 ft | 26 kts | 1° |
| 2026-05-05 19:53 | 27.98360 | -82.53960 | 47 ft | 35 kts | 1° |
| 2026-05-05 19:53 | 27.98630 | -82.53952 | 47 ft | 41 kts | 1° |
| 2026-05-05 19:53 | 27.98910 | -82.53944 | 47 ft | 40 kts | 2° |
| 2026-05-05 19:54 | 27.99195 | -82.53930 | 46 ft | 41 kts | 1° |
| 2026-05-05 19:54 | 27.99349 | -82.54043 | 46 ft | 28 kts | 276° |
| 2026-05-05 19:54 | 27.99242 | -82.54131 | 47 ft | 25 kts | 179° |
| 2026-05-05 19:54 | 27.98821 | -82.54152 | 51 ft | 102 kts | 181° |
| 2026-05-05 19:55 | 27.97852 | -82.54183 | 48 ft | 173 kts | 181° |
| 2026-05-05 19:55 | 27.96619 | -82.54222 | 789 ft | 180 kts | 185° |
| 2026-05-05 19:55 | 27.95295 | -82.54507 | 1375 ft | 207 kts | 197° |
| 2026-05-05 19:55 | 27.94014 | -82.55421 | 1957 ft | 235 kts | 230° |
| 2026-05-05 19:56 | 27.93383 | -82.57200 | 2609 ft | 259 kts | 269° |
| 2026-05-05 19:56 | 27.93852 | -82.59189 | 3549 ft | 271 kts | 304° |
| 2026-05-05 19:56 | 27.95280 | -82.60556 | 4698 ft | 275 kts | 339° |
| 2026-05-05 19:56 | 27.97138 | -82.60893 | 5875 ft | 278 kts | 2° |
| 2026-05-05 19:57 | 27.99075 | -82.60625 | 7065 ft | 283 kts | 10° |
| 2026-05-05 19:57 | 28.00383 | -82.60319 | 7888 ft | 286 kts | 11° |
| 2026-05-05 19:57 | 28.02989 | -82.59690 | 9538 ft | 293 kts | 8° |
| 2026-05-05 19:57 | 28.05022 | -82.59280 | 10609 ft | 305 kts | 6° |
| 2026-05-05 19:58 | 28.07217 | -82.58933 | 11222 ft | 331 kts | 4° |
| 2026-05-05 19:58 | 28.09566 | -82.58637 | 11916 ft | 346 kts | 2° |
| 2026-05-05 19:58 | 28.11991 | -82.58370 | 12925 ft | 352 kts | 2° |
| 2026-05-05 19:58 | 28.13620 | -82.58203 | 13615 ft | 355 kts | 1° |
| 2026-05-05 19:59 | 28.16095 | -82.57955 | 14573 ft | 358 kts | 1° |
| 2026-05-05 19:59 | 28.18588 | -82.57711 | 15472 ft | 362 kts | 1° |
| 2026-05-05 19:59 | 28.21103 | -82.57624 | 16307 ft | 362 kts | 354° |
| 2026-05-05 19:59 | 28.23669 | -82.57705 | 16791 ft | 377 kts | 354° |
| 2026-05-05 20:00 | 28.26359 | -82.57793 | 16970 ft | 397 kts | 354° |
| 2026-05-05 20:00 | 28.29198 | -82.57885 | 17007 ft | 417 kts | 354° |
| 2026-05-05 20:00 | 28.32154 | -82.57977 | 17008 ft | 433 kts | 355° |
| 2026-05-05 20:00 | 28.35186 | -82.58066 | 17006 ft | 436 kts | 355° |
| 2026-05-05 20:01 | 28.38221 | -82.58145 | 17009 ft | 435 kts | 355° |
| 2026-05-05 20:01 | 28.41255 | -82.58217 | 17007 ft | 435 kts | 355° |
| 2026-05-05 20:01 | 28.44246 | -82.58285 | 17006 ft | 435 kts | 355° |
| 2026-05-05 20:01 | 28.47275 | -82.58353 | 17017 ft | 435 kts | 355° |
| 2026-05-05 20:02 | 28.50307 | -82.58421 | 17005 ft | 435 kts | 355° |
| 2026-05-05 20:02 | 28.53334 | -82.58492 | 17007 ft | 435 kts | 355° |
| 2026-05-05 20:02 | 28.56358 | -82.58568 | 17004 ft | 435 kts | 355° |
| 2026-05-05 20:02 | 28.59386 | -82.58646 | 17006 ft | 435 kts | 355° |
| 2026-05-05 20:03 | 28.62412 | -82.58724 | 17006 ft | 435 kts | 355° |
| 2026-05-05 20:03 | 28.65434 | -82.58799 | 17002 ft | 435 kts | 355° |
| 2026-05-05 20:03 | 28.68443 | -82.59034 | 17003 ft | 432 kts | 349° |
| 2026-05-05 20:03 | 28.71429 | -82.59455 | 17006 ft | 432 kts | 349° |
| 2026-05-05 20:04 | 28.74413 | -82.59873 | 17005 ft | 432 kts | 349° |
| 2026-05-05 20:04 | 28.77405 | -82.60291 | 17019 ft | 432 kts | 349° |
| 2026-05-05 20:04 | 28.80409 | -82.60712 | 17021 ft | 432 kts | 349° |
| 2026-05-05 20:04 | 28.83359 | -82.61126 | 17028 ft | 432 kts | 349° |
| 2026-05-05 20:05 | 28.86348 | -82.61544 | 17024 ft | 432 kts | 349° |
| 2026-05-05 20:05 | 28.89332 | -82.61962 | 17022 ft | 432 kts | 349° |
| 2026-05-05 20:05 | 28.92319 | -82.62377 | 17025 ft | 432 kts | 349° |
| 2026-05-05 20:05 | 28.95305 | -82.62790 | 17019 ft | 432 kts | 349° |
| 2026-05-05 20:06 | 28.98282 | -82.63205 | 17020 ft | 432 kts | 349° |
| 2026-05-05 20:06 | 29.01271 | -82.63622 | 17015 ft | 432 kts | 349° |
| 2026-05-05 20:06 | 29.04255 | -82.64039 | 17019 ft | 432 kts | 349° |
| 2026-05-05 20:06 | 29.07239 | -82.64454 | 17027 ft | 432 kts | 349° |
| 2026-05-05 20:07 | 29.10224 | -82.64871 | 17020 ft | 432 kts | 349° |
| 2026-05-05 20:07 | 29.13211 | -82.65290 | 17019 ft | 432 kts | 349° |
| 2026-05-05 20:07 | 29.16194 | -82.65709 | 17017 ft | 432 kts | 349° |
| 2026-05-05 20:07 | 29.19185 | -82.66133 | 17016 ft | 432 kts | 349° |
| 2026-05-05 20:08 | 29.22133 | -82.66550 | 17009 ft | 432 kts | 349° |
| 2026-05-05 20:08 | 29.25115 | -82.66972 | 17004 ft | 432 kts | 349° |
| 2026-05-05 20:08 | 29.28109 | -82.67396 | 17011 ft | 433 kts | 349° |
| 2026-05-05 20:08 | 29.31093 | -82.67817 | 17016 ft | 433 kts | 349° |
| 2026-05-05 20:09 | 29.34083 | -82.68240 | 17025 ft | 433 kts | 349° |
| 2026-05-05 20:09 | 29.37080 | -82.68654 | 17024 ft | 434 kts | 351° |
| 2026-05-05 20:09 | 29.40110 | -82.68607 | 17010 ft | 440 kts | 5° |
| 2026-05-05 20:09 | 29.43078 | -82.67634 | 17010 ft | 448 kts | 20° |
| 2026-05-05 20:10 | 29.45760 | -82.65761 | 17013 ft | 456 kts | 34° |
| 2026-05-05 20:10 | 29.48255 | -82.63502 | 17017 ft | 457 kts | 34° |
| 2026-05-05 20:10 | 29.50744 | -82.61239 | 17013 ft | 457 kts | 34° |
| 2026-05-05 20:10 | 29.53207 | -82.59002 | 17013 ft | 457 kts | 34° |
| 2026-05-05 20:11 | 29.55701 | -82.56740 | 17011 ft | 457 kts | 34° |
| 2026-05-05 20:11 | 29.58195 | -82.54479 | 16862 ft | 456 kts | 34° |
| 2026-05-05 20:11 | 29.60641 | -82.52258 | 16635 ft | 440 kts | 34° |
| 2026-05-05 20:11 | 29.63000 | -82.50111 | 16428 ft | 425 kts | 34° |
| 2026-05-05 20:12 | 29.65296 | -82.48021 | 16216 ft | 413 kts | 34° |
| 2026-05-05 20:12 | 29.67518 | -82.46003 | 16000 ft | 401 kts | 34° |
| 2026-05-05 20:12 | 29.69680 | -82.44040 | 15784 ft | 392 kts | 34° |
| 2026-05-05 20:12 | 29.71786 | -82.42129 | 15563 ft | 389 kts | 34° |
| 2026-05-05 20:13 | 29.73904 | -82.40206 | 15370 ft | 387 kts | 34° |
| 2026-05-05 20:13 | 29.76017 | -82.38288 | 15147 ft | 386 kts | 34° |
| 2026-05-05 20:13 | 29.78126 | -82.36376 | 14936 ft | 385 kts | 34° |
| 2026-05-05 20:13 | 29.80226 | -82.34470 | 14729 ft | 384 kts | 34° |
| 2026-05-05 20:14 | 29.82322 | -82.32566 | 14513 ft | 383 kts | 34° |
| 2026-05-05 20:14 | 29.84404 | -82.30667 | 14310 ft | 382 kts | 34° |
| 2026-05-05 20:14 | 29.86485 | -82.28763 | 14103 ft | 381 kts | 35° |
| 2026-05-05 20:14 | 29.88559 | -82.26863 | 13893 ft | 380 kts | 35° |
| 2026-05-05 20:15 | 29.90624 | -82.24972 | 13678 ft | 378 kts | 35° |
| 2026-05-05 20:15 | 29.92682 | -82.23089 | 13446 ft | 377 kts | 35° |
| 2026-05-05 20:15 | 29.94708 | -82.21236 | 13217 ft | 376 kts | 35° |
| 2026-05-05 20:15 | 29.96754 | -82.19364 | 12991 ft | 375 kts | 35° |
| 2026-05-05 20:16 | 29.98793 | -82.17496 | 12770 ft | 374 kts | 35° |
| 2026-05-05 20:16 | 30.00827 | -82.15633 | 12537 ft | 373 kts | 35° |
| 2026-05-05 20:16 | 30.02896 | -82.13850 | 12311 ft | 369 kts | 27° |
| 2026-05-05 20:16 | 30.05148 | -82.12458 | 12032 ft | 367 kts | 24° |
| 2026-05-05 20:17 | 30.07404 | -82.11089 | 11509 ft | 365 kts | 25° |
| 2026-05-05 20:17 | 30.09640 | -82.09727 | 11033 ft | 361 kts | 25° |
| 2026-05-05 20:17 | 30.11829 | -82.08391 | 10603 ft | 348 kts | 25° |
| 2026-05-05 20:17 | 30.13920 | -82.07109 | 10179 ft | 332 kts | 25° |
| 2026-05-05 20:18 | 30.15919 | -82.05885 | 9750 ft | 318 kts | 26° |
| 2026-05-05 20:18 | 30.17840 | -82.04712 | 9280 ft | 306 kts | 26° |
| 2026-05-05 20:18 | 30.19695 | -82.03580 | 8797 ft | 296 kts | 26° |
| 2026-05-05 20:18 | 30.21498 | -82.02481 | 8392 ft | 291 kts | 26° |
| 2026-05-05 20:19 | 30.23258 | -82.01408 | 7988 ft | 281 kts | 26° |
| 2026-05-05 20:19 | 30.24955 | -82.00371 | 7600 ft | 270 kts | 27° |
| 2026-05-05 20:19 | 30.26569 | -81.99387 | 7211 ft | 261 kts | 27° |
| 2026-05-05 20:19 | 30.28156 | -81.98416 | 6824 ft | 254 kts | 27° |
| 2026-05-05 20:20 | 30.29710 | -81.97467 | 6439 ft | 251 kts | 27° |
| 2026-05-05 20:20 | 30.31252 | -81.96524 | 6035 ft | 248 kts | 27° |
| 2026-05-05 20:20 | 30.32758 | -81.95602 | 5632 ft | 242 kts | 27° |
| 2026-05-05 20:20 | 30.34235 | -81.94698 | 5237 ft | 238 kts | 27° |
| 2026-05-05 20:21 | 30.35687 | -81.93810 | 4852 ft | 235 kts | 28° |
| 2026-05-05 20:21 | 30.37126 | -81.92931 | 4448 ft | 232 kts | 28° |
| 2026-05-05 20:21 | 30.38537 | -81.92068 | 4044 ft | 227 kts | 28° |
| 2026-05-05 20:21 | 30.39921 | -81.91222 | 3659 ft | 223 kts | 28° |
| 2026-05-05 20:22 | 30.41284 | -81.90386 | 3262 ft | 220 kts | 28° |
| 2026-05-05 20:22 | 30.42627 | -81.89557 | 2863 ft | 217 kts | 31° |
| 2026-05-05 20:22 | 30.43748 | -81.88466 | 2487 ft | 214 kts | 55° |
| 2026-05-05 20:22 | 30.44415 | -81.86964 | 2246 ft | 208 kts | 71° |
| 2026-05-05 20:23 | 30.44892 | -81.85412 | 1980 ft | 194 kts | 71° |
| 2026-05-05 20:23 | 30.45317 | -81.84030 | 1978 ft | 169 kts | 72° |
| 2026-05-05 20:23 | 30.45695 | -81.82802 | 1992 ft | 158 kts | 73° |
| 2026-05-05 20:23 | 30.46058 | -81.81619 | 1990 ft | 154 kts | 72° |
| 2026-05-05 20:24 | 30.46416 | -81.80451 | 1868 ft | 153 kts | 72° |
| 2026-05-05 20:24 | 30.46771 | -81.79294 | 1699 ft | 152 kts | 72° |
| 2026-05-05 20:24 | 30.47124 | -81.78142 | 1511 ft | 151 kts | 72° |
| 2026-05-05 20:24 | 30.47475 | -81.76999 | 1320 ft | 151 kts | 72° |
| 2026-05-05 20:25 | 30.47823 | -81.75860 | 1118 ft | 149 kts | 72° |
| 2026-05-05 20:25 | 30.48184 | -81.74740 | 989 ft | 148 kts | 71° |
| 2026-05-05 20:25 | 30.48529 | -81.73627 | 736 ft | 146 kts | 74° |
| 2026-05-05 20:25 | 30.48847 | -81.72519 | 552 ft | 145 kts | 72° |
| 2026-05-05 20:26 | 30.49168 | -81.71453 | 318 ft | 138 kts | 71° |
| 2026-05-05 20:26 | 30.49506 | -81.70397 | 119 ft | 137 kts | 75° |
| 2026-05-05 20:26 | 30.49805 | -81.69392 | 39 ft | 118 kts | 69° |
| 2026-05-05 20:26 | 30.49998 | -81.68765 | 36 ft | 57 kts | 71° |
| 2026-05-05 20:27 | 30.50011 | -81.68497 | 37 ft | 23 kts | 132° |
| 2026-05-05 20:27 | 30.49893 | -81.68447 | 35 ft | 18 kts | 181° |
| 2026-05-05 20:27 | 30.49767 | -81.68470 | 35 ft | 19 kts | 191° |
| 2026-05-05 20:27 | 30.49633 | -81.68500 | 35 ft | 20 kts | 191° |
| 2026-05-05 20:28 | 30.49512 | -81.68583 | 34 ft | 24 kts | 231° |
| 2026-05-05 20:28 | 30.49390 | -81.68784 | 35 ft | 32 kts | 251° |
| 2026-05-05 20:28 | 30.49432 | -81.69010 | 35 ft | 33 kts | 326° |
| 2026-05-05 20:28 | 30.49642 | -81.69146 | 35 ft | 34 kts | 328° |
| 2026-05-05 20:29 | 30.49638 | -81.69374 | 34 ft | 39 kts | 250° |
| 2026-05-05 20:29 | 30.49526 | -81.69735 | 35 ft | 47 kts | 250° |
| 2026-05-05 20:29 | 30.49517 | -81.69938 | 35 ft | 22 kts | 328° |
| 2026-05-05 20:29 | 30.49649 | -81.69908 | 35 ft | 26 kts | 68° |
| 2026-05-05 20:30 | 30.49796 | -81.69420 | 38 ft | 106 kts | 70° |
| 2026-05-05 20:30 | 30.50116 | -81.68373 | 217 ft | 151 kts | 73° |
| 2026-05-05 20:30 | 30.50496 | -81.67174 | 562 ft | 156 kts | 72° |
| 2026-05-05 20:30 | 30.50883 | -81.66061 | 761 ft | 143 kts | 64° |
| 2026-05-05 20:31 | 30.51605 | -81.65255 | 899 ft | 149 kts | 21° |
| 2026-05-05 20:31 | 30.52646 | -81.65219 | 849 ft | 154 kts | 342° |
| 2026-05-05 20:31 | 30.53552 | -81.65905 | 1014 ft | 157 kts | 321° |
| 2026-05-05 20:31 | 30.54255 | -81.66841 | 1147 ft | 156 kts | 288° |
| 2026-05-05 20:32 | 30.54221 | -81.68030 | 1044 ft | 149 kts | 248° |
| 2026-05-05 20:32 | 30.53874 | -81.69161 | 958 ft | 149 kts | 246° |
| 2026-05-05 20:32 | 30.53508 | -81.70294 | 940 ft | 151 kts | 249° |
| 2026-05-05 20:32 | 30.53138 | -81.71430 | 977 ft | 152 kts | 247° |
| 2026-05-05 20:33 | 30.52777 | -81.72596 | 1008 ft | 153 kts | 250° |
| 2026-05-05 20:33 | 30.52441 | -81.73754 | 992 ft | 151 kts | 250° |
| 2026-05-05 20:33 | 30.52274 | -81.74358 | 990 ft | 150 kts | 251° |
| 2026-05-05 20:33 | 30.52068 | -81.75140 | 1006 ft | 149 kts | 252° |
| 2026-05-05 20:34 | 30.51786 | -81.76307 | 996 ft | 149 kts | 254° |
| 2026-05-05 20:34 | 30.51473 | -81.77448 | 964 ft | 149 kts | 234° |
| 2026-05-05 20:34 | 30.50651 | -81.78105 | 976 ft | 145 kts | 191° |
| 2026-05-05 20:34 | 30.49668 | -81.78050 | 942 ft | 141 kts | 162° |
| 2026-05-05 20:35 | 30.48718 | -81.77738 | 913 ft | 141 kts | 162° |
| 2026-05-05 20:35 | 30.47817 | -81.77340 | 893 ft | 136 kts | 141° |
| 2026-05-05 20:35 | 30.47451 | -81.76370 | 775 ft | 140 kts | 73° |
| 2026-05-05 20:35 | 30.47856 | -81.75355 | 839 ft | 138 kts | 62° |
| 2026-05-05 20:36 | 30.48299 | -81.74323 | 849 ft | 145 kts | 70° |
| 2026-05-05 20:36 | 30.48637 | -81.73238 | 675 ft | 142 kts | 73° |
| 2026-05-05 20:36 | 30.48949 | -81.72170 | 490 ft | 139 kts | 73° |
| 2026-05-05 20:36 | 30.49293 | -81.71137 | 277 ft | 136 kts | 71° |
| 2026-05-05 20:37 | 30.49597 | -81.70096 | 108 ft | 137 kts | 74° |
| 2026-05-05 20:37 | 30.49797 | -81.69414 | 41 ft | 125 kts | 72° |
| 2026-05-05 20:37 | 30.50098 | -81.68436 | 38 ft | 66 kts | 70° |
| 2026-05-05 20:37 | 30.50169 | -81.68086 | 37 ft | 26 kts | 111° |
| 2026-05-05 20:38 | 30.50096 | -81.68003 | 36 ft | 0 kts | 155° |